Tupelo, MS (38804)

1:51 AM CST on November 29, 2014 (GMT -0600)
Lee Acres | Change Station
CLOSE
Current Station
Personal Weather Station
Location: Tupelo, MS
Elevation: 340 ft
Nearby Weather Stations

Elev 340 ft 34.24 °N, 88.72 °W | Updated 41 seconds ago

Clear
Clear
40.5 °F
Feels Like 40 °F
N
0.0
Wind Variable Wind from SE
Gusts 5.0 mph

Today
High -- | Low -- °F
--% Chance of Precip.
Yesterday
High -- | Low -- °F
Precip. -- in
6:40 AM 4:45 PM
Waxing Crescent, 49% visible
Pressure 30.16 in
Visibility 10.0 miles
Clouds Clear
Windchill 40 °F
Dew Point 32 °F
Humidity 70%
Rainfall 0.00 in
Snow Depth Not available.
UV 0 out of 12
Pollen .30 out of 12
Air Quality Not available.
Flu Activity Not available.
METAR KTUP 290653Z AUTO 20006KT 10SM CLR 03/M03 A3016 RMK AO2 SLP212 T00331028 $

More Conditions Fewer Conditions

Pressure 30.16 in
Visibility 10.0 miles
Clouds Clear
Windchill 40 °F
Dew Point 32 °F
Humidity 70%
Rainfall 0.00 in
Snow Depth Not available.
UV 0 out of 12
Pollen .30 out of 12
Air Quality Not available.
Flu Activity Not available.
METAR KTUP 290653Z AUTO 20006KT 10SM CLR 03/M03 A3016 RMK AO2 SLP212 T00331028 $

More Conditions Fewer Conditions

10-Day Weather Forecast

Almanac

Astronomy

Nov. 29, 2014 Rise Set
Actual Time
Civil Twilight
Nautical Twilight
Astronomical Twilight
Moon
Length of Visible Light
Length of Day
Tomorrow will be .
, % of the Moon is Illuminated

Today's Extremes

State Highs State Lows

Community

WunderPhotos

Upload Photos

1,774,432 photos uploaded!

WunderBlogs® & News

Nearby

Air Quality

  Air Quality AQ Index Pollutant
Not available.

Snow Depth

Station Depth Elevation

Earthquake Activity

City Distance Mag. Time & Date
Minimum magnitude displayed is 2.5.

Coastal Water Temperatures

Place Temperature

Nearby Weather Stations